Terminal Aerodrome Forecast
Issued by NWS

Home | Current Version | Previous Version | Text Only | Print | Product List | Glossary On
Versions: 1 2 3 4 5 6 7 8 9 10 11 12 13 14 15 16 17 18 19 20 21
000
FTUS42 KTAE 282320
TAFECP
TAF
KECP 282320Z 2900/2924 20005KT P6SM SCT030
     FM290600 20002KT 3SM BR OVC020
     FM291100 14001KT 1SM BR OVC001
     FM291400 14005KT P6SM SCT030=

USA.gov is the U.S. government's official web portal to all federal, state and local government web resources and services.